sensor_id;sensor_type;location;lat;lon;timestamp;temperature;humidity
71208;DHT22;58938;49.868;8.646;2022-12-05T00:00:59;6.80;66.40
71208;DHT22;58938;49.868;8.646;2022-12-05T00:03:36;6.70;66.40
71208;DHT22;58938;49.868;8.646;2022-12-05T00:06:03;6.80;66.40
71208;DHT22;58938;49.868;8.646;2022-12-05T00:08:28;6.80;66.50
71208;DHT22;58938;49.868;8.646;2022-12-05T00:10:54;6.80;66.50
71208;DHT22;58938;49.868;8.646;2022-12-05T00:13:20;6.70;66.60
71208;DHT22;58938;49.868;8.646;2022-12-05T00:15:45;6.80;66.60
71208;DHT22;58938;49.868;8.646;2022-12-05T00:18:11;6.80;66.60
71208;DHT22;58938;49.868;8.646;2022-12-05T00:20:43;6.80;66.70
71208;DHT22;58938;49.868;8.646;2022-12-05T00:23:08;6.80;66.70
71208;DHT22;58938;49.868;8.646;2022-12-05T00:25:35;6.80;66.70
71208;DHT22;58938;49.868;8.646;2022-12-05T00:28:00;6.80;66.80
71208;DHT22;58938;49.868;8.646;2022-12-05T00:30:26;6.90;66.80
71208;DHT22;58938;49.868;8.646;2022-12-05T00:32:52;6.90;66.80
71208;DHT22;58938;49.868;8.646;2022-12-05T00:35:17;6.90;66.80
71208;DHT22;58938;49.868;8.646;2022-12-05T00:37:43;6.90;66.80
71208;DHT22;58938;49.868;8.646;2022-12-05T00:40:09;6.90;66.90
71208;DHT22;58938;49.868;8.646;2022-12-05T00:42:34;6.90;66.90
71208;DHT22;58938;49.868;8.646;2022-12-05T00:45:00;6.90;66.90
71208;DHT22;58938;49.868;8.646;2022-12-05T00:47:25;6.90;66.90
71208;DHT22;58938;49.868;8.646;2022-12-05T00:49:51;7.00;66.90
71208;DHT22;58938;49.868;8.646;2022-12-05T00:52:17;7.00;67.00
71208;DHT22;58938;49.868;8.646;2022-12-05T00:54:42;7.00;66.90
71208;DHT22;58938;49.868;8.646;2022-12-05T00:57:08;7.00;66.90
71208;DHT22;58938;49.868;8.646;2022-12-05T00:59:33;7.00;67.00
71208;DHT22;58938;49.868;8.646;2022-12-05T01:01:59;7.00;67.00
71208;DHT22;58938;49.868;8.646;2022-12-05T01:04:25;7.00;66.90
71208;DHT22;58938;49.868;8.646;2022-12-05T01:06:53;7.10;67.00
71208;DHT22;58938;49.868;8.646;2022-12-05T01:09:20;7.00;66.90
71208;DHT22;58938;49.868;8.646;2022-12-05T01:11:47;7.00;67.00
71208;DHT22;58938;49.868;8.646;2022-12-05T01:14:15;7.10;67.00
71208;DHT22;58938;49.868;8.646;2022-12-05T01:16:43;7.10;67.00
71208;DHT22;58938;49.868;8.646;2022-12-05T01:19:18;7.10;67.00
71208;DHT22;58938;49.868;8.646;2022-12-05T01:21:44;7.10;67.00
71208;DHT22;58938;49.868;8.646;2022-12-05T01:24:10;7.10;67.00
71208;DHT22;58938;49.868;8.646;2022-12-05T01:26:36;7.10;67.00
71208;DHT22;58938;49.868;8.646;2022-12-05T01:29:03;7.10;66.80
71208;DHT22;58938;49.868;8.646;2022-12-05T01:31:32;7.10;66.80
71208;DHT22;58938;49.868;8.646;2022-12-05T01:34:00;7.00;66.80
71208;DHT22;58938;49.868;8.646;2022-12-05T01:36:27;7.10;66.90
71208;DHT22;58938;49.868;8.646;2022-12-05T01:38:53;7.10;66.90
71208;DHT22;58938;49.868;8.646;2022-12-05T01:41:25;7.10;66.90
71208;DHT22;58938;49.868;8.646;2022-12-05T01:44:04;7.10;67.10
71208;DHT22;58938;49.868;8.646;2022-12-05T01:46:32;7.10;67.00
71208;DHT22;58938;49.868;8.646;2022-12-05T01:51:51;7.10;66.90
71208;DHT22;58938;49.868;8.646;2022-12-05T01:54:17;7.10;66.90
71208;DHT22;58938;49.868;8.646;2022-12-05T01:56:51;7.10;66.80
71208;DHT22;58938;49.868;8.646;2022-12-05T01:59:19;7.10;67.00
71208;DHT22;58938;49.868;8.646;2022-12-05T02:01:45;7.10;67.00
71208;DHT22;58938;49.868;8.646;2022-12-05T02:04:11;7.10;67.00
71208;DHT22;58938;49.868;8.646;2022-12-05T02:06:37;7.10;67.00
71208;DHT22;58938;49.868;8.646;2022-12-05T02:09:03;7.10;67.00
71208;DHT22;58938;49.868;8.646;2022-12-05T02:11:30;7.10;67.00
71208;DHT22;58938;49.868;8.646;2022-12-05T02:17:09;7.20;66.90
71208;DHT22;58938;49.868;8.646;2022-12-05T02:25:09;7.20;67.00
71208;DHT22;58938;49.868;8.646;2022-12-05T02:30:40;7.20;67.10
71208;DHT22;58938;49.868;8.646;2022-12-05T02:35:48;7.30;67.00
71208;DHT22;58938;49.868;8.646;2022-12-05T02:38:43;7.20;67.00
71208;DHT22;58938;49.868;8.646;2022-12-05T02:41:46;7.30;67.10
71208;DHT22;58938;49.868;8.646;2022-12-05T02:44:31;7.30;67.00
71208;DHT22;58938;49.868;8.646;2022-12-05T02:46:58;7.30;67.00
71208;DHT22;58938;49.868;8.646;2022-12-05T02:49:31;7.30;67.00
71208;DHT22;58938;49.868;8.646;2022-12-05T02:52:00;7.30;67.10
71208;DHT22;58938;49.868;8.646;2022-12-05T02:54:34;7.20;67.10
71208;DHT22;58938;49.868;8.646;2022-12-05T02:57:02;7.30;67.10
71208;DHT22;58938;49.868;8.646;2022-12-05T02:59:28;7.30;67.10
71208;DHT22;58938;49.868;8.646;2022-12-05T03:01:54;7.30;67.10
71208;DHT22;58938;49.868;8.646;2022-12-05T03:04:21;7.30;67.10
71208;DHT22;58938;49.868;8.646;2022-12-05T03:06:55;7.30;67.10
71208;DHT22;58938;49.868;8.646;2022-12-05T03:09:27;7.30;67.10
71208;DHT22;58938;49.868;8.646;2022-12-05T03:11:59;7.30;67.10
71208;DHT22;58938;49.868;8.646;2022-12-05T03:14:32;7.30;67.10
71208;DHT22;58938;49.868;8.646;2022-12-05T03:17:02;7.30;67.10
71208;DHT22;58938;49.868;8.646;2022-12-05T03:19:57;7.30;67.00
71208;DHT22;58938;49.868;8.646;2022-12-05T03:22:43;7.30;67.00
71208;DHT22;58938;49.868;8.646;2022-12-05T03:25:11;7.20;67.00
71208;DHT22;58938;49.868;8.646;2022-12-05T03:28:09;7.30;67.00
71208;DHT22;58938;49.868;8.646;2022-12-05T03:30:36;7.20;67.00
71208;DHT22;58938;49.868;8.646;2022-12-05T03:33:12;7.20;67.00
71208;DHT22;58938;49.868;8.646;2022-12-05T03:35:44;7.20;67.00
71208;DHT22;58938;49.868;8.646;2022-12-05T03:38:13;7.20;67.10
71208;DHT22;58938;49.868;8.646;2022-12-05T03:40:48;7.20;67.20
71208;DHT22;58938;49.868;8.646;2022-12-05T03:46:36;7.20;67.20
71208;DHT22;58938;49.868;8.646;2022-12-05T03:49:31;7.20;67.20
71208;DHT22;58938;49.868;8.646;2022-12-05T03:52:25;7.20;67.20
71208;DHT22;58938;49.868;8.646;2022-12-05T03:54:59;7.20;67.20
71208;DHT22;58938;49.868;8.646;2022-12-05T03:57:41;7.20;67.30
71208;DHT22;58938;49.868;8.646;2022-12-05T04:00:22;7.20;67.30
71208;DHT22;58938;49.868;8.646;2022-12-05T04:02:54;7.20;67.30
71208;DHT22;58938;49.868;8.646;2022-12-05T04:05:36;7.20;67.30
71208;DHT22;58938;49.868;8.646;2022-12-05T04:08:06;7.20;67.40
71208;DHT22;58938;49.868;8.646;2022-12-05T04:10:36;7.20;67.40
71208;DHT22;58938;49.868;8.646;2022-12-05T04:13:18;7.20;67.30
71208;DHT22;58938;49.868;8.646;2022-12-05T04:16:16;7.20;67.30
71208;DHT22;58938;49.868;8.646;2022-12-05T04:19:11;7.10;67.40
71208;DHT22;58938;49.868;8.646;2022-12-05T04:21:44;7.10;67.50
71208;DHT22;58938;49.868;8.646;2022-12-05T04:24:24;7.20;67.50
71208;DHT22;58938;49.868;8.646;2022-12-05T04:30:15;7.10;67.50
71208;DHT22;58938;49.868;8.646;2022-12-05T04:32:51;7.10;67.60
71208;DHT22;58938;49.868;8.646;2022-12-05T04:35:40;7.10;67.60
71208;DHT22;58938;49.868;8.646;2022-12-05T04:38:30;7.10;67.60
71208;DHT22;58938;49.868;8.646;2022-12-05T04:41:02;7.00;67.70
71208;DHT22;58938;49.868;8.646;2022-12-05T04:43:31;6.90;67.80
71208;DHT22;58938;49.868;8.646;2022-12-05T04:45:58;6.90;67.90
71208;DHT22;58938;49.868;8.646;2022-12-05T04:48:27;6.90;68.00
71208;DHT22;58938;49.868;8.646;2022-12-05T04:50:54;6.90;68.10
71208;DHT22;58938;49.868;8.646;2022-12-05T04:53:25;6.90;68.20
71208;DHT22;58938;49.868;8.646;2022-12-05T04:55:53;6.80;68.30
71208;DHT22;58938;49.868;8.646;2022-12-05T04:58:22;6.80;68.30
71208;DHT22;58938;49.868;8.646;2022-12-05T05:05:54;6.90;68.60
71208;DHT22;58938;49.868;8.646;2022-12-05T05:08:24;6.80;68.70
71208;DHT22;58938;49.868;8.646;2022-12-05T05:11:12;6.80;68.70
71208;DHT22;58938;49.868;8.646;2022-12-05T05:13:39;6.70;68.80
71208;DHT22;58938;49.868;8.646;2022-12-05T05:16:05;6.70;69.30
71208;DHT22;58938;49.868;8.646;2022-12-05T05:18:30;6.70;69.30
71208;DHT22;58938;49.868;8.646;2022-12-05T05:20:56;6.80;69.20
71208;DHT22;58938;49.868;8.646;2022-12-05T05:23:21;6.80;69.20
71208;DHT22;58938;49.868;8.646;2022-12-05T05:25:52;6.80;69.10
71208;DHT22;58938;49.868;8.646;2022-12-05T05:28:18;6.90;69.10
71208;DHT22;58938;49.868;8.646;2022-12-05T05:30:43;6.80;69.10
71208;DHT22;58938;49.868;8.646;2022-12-05T05:33:09;6.90;69.10
71208;DHT22;58938;49.868;8.646;2022-12-05T05:35:35;6.90;69.20
71208;DHT22;58938;49.868;8.646;2022-12-05T05:38:02;6.90;69.20
71208;DHT22;58938;49.868;8.646;2022-12-05T05:40:27;6.90;69.20
71208;DHT22;58938;49.868;8.646;2022-12-05T05:42:53;6.90;69.20
71208;DHT22;58938;49.868;8.646;2022-12-05T05:45:18;6.90;69.30
71208;DHT22;58938;49.868;8.646;2022-12-05T05:47:47;7.00;69.30
71208;DHT22;58938;49.868;8.646;2022-12-05T05:50:14;7.00;69.40
71208;DHT22;58938;49.868;8.646;2022-12-05T05:52:40;7.00;69.30
71208;DHT22;58938;49.868;8.646;2022-12-05T05:55:06;7.00;69.20
71208;DHT22;58938;49.868;8.646;2022-12-05T05:57:32;7.10;69.30
71208;DHT22;58938;49.868;8.646;2022-12-05T05:59:58;7.10;69.20
71208;DHT22;58938;49.868;8.646;2022-12-05T06:02:23;7.10;69.20
71208;DHT22;58938;49.868;8.646;2022-12-05T06:04:49;7.10;69.20
71208;DHT22;58938;49.868;8.646;2022-12-05T06:07:15;7.00;69.20
71208;DHT22;58938;49.868;8.646;2022-12-05T06:09:41;7.00;69.30
71208;DHT22;58938;49.868;8.646;2022-12-05T06:12:06;7.00;69.30
71208;DHT22;58938;49.868;8.646;2022-12-05T06:14:32;7.00;69.50
71208;DHT22;58938;49.868;8.646;2022-12-05T06:16:57;7.00;69.50
71208;DHT22;58938;49.868;8.646;2022-12-05T06:19:23;7.00;69.50
71208;DHT22;58938;49.868;8.646;2022-12-05T06:21:49;7.00;69.40
71208;DHT22;58938;49.868;8.646;2022-12-05T06:24:15;7.00;69.50
71208;DHT22;58938;49.868;8.646;2022-12-05T06:26:41;7.00;69.40
71208;DHT22;58938;49.868;8.646;2022-12-05T06:29:08;7.00;69.40
71208;DHT22;58938;49.868;8.646;2022-12-05T06:31:33;7.00;69.50
71208;DHT22;58938;49.868;8.646;2022-12-05T06:34:03;7.00;69.50
71208;DHT22;58938;49.868;8.646;2022-12-05T06:36:29;7.00;69.40
71208;DHT22;58938;49.868;8.646;2022-12-05T06:38:56;7.00;69.40
71208;DHT22;58938;49.868;8.646;2022-12-05T06:41:22;7.00;69.70
71208;DHT22;58938;49.868;8.646;2022-12-05T06:43:51;6.90;69.80
71208;DHT22;58938;49.868;8.646;2022-12-05T06:46:17;6.90;69.80
71208;DHT22;58938;49.868;8.646;2022-12-05T06:48:43;7.00;69.80
71208;DHT22;58938;49.868;8.646;2022-12-05T06:51:11;7.00;69.80
71208;DHT22;58938;49.868;8.646;2022-12-05T06:53:38;7.00;69.90
71208;DHT22;58938;49.868;8.646;2022-12-05T06:56:06;7.00;69.90
71208;DHT22;58938;49.868;8.646;2022-12-05T06:58:36;7.00;69.90
71208;DHT22;58938;49.868;8.646;2022-12-05T07:01:01;7.00;70.00
71208;DHT22;58938;49.868;8.646;2022-12-05T07:03:47;7.00;70.00
71208;DHT22;58938;49.868;8.646;2022-12-05T07:06:14;7.10;70.00
71208;DHT22;58938;49.868;8.646;2022-12-05T07:08:40;7.10;69.90
71208;DHT22;58938;49.868;8.646;2022-12-05T07:11:06;7.10;70.00
71208;DHT22;58938;49.868;8.646;2022-12-05T07:13:32;7.00;70.00
71208;DHT22;58938;49.868;8.646;2022-12-05T07:15:58;7.00;70.10
71208;DHT22;58938;49.868;8.646;2022-12-05T07:18:23;7.10;70.20
71208;DHT22;58938;49.868;8.646;2022-12-05T07:21:00;7.10;70.20
71208;DHT22;58938;49.868;8.646;2022-12-05T07:23:26;7.10;70.20
71208;DHT22;58938;49.868;8.646;2022-12-05T07:25:53;7.10;70.20
71208;DHT22;58938;49.868;8.646;2022-12-05T07:28:19;7.10;70.30
71208;DHT22;58938;49.868;8.646;2022-12-05T07:30:45;7.20;70.30
71208;DHT22;58938;49.868;8.646;2022-12-05T07:33:10;7.20;70.30
71208;DHT22;58938;49.868;8.646;2022-12-05T07:35:36;7.20;70.30
71208;DHT22;58938;49.868;8.646;2022-12-05T07:38:02;7.20;70.30
71208;DHT22;58938;49.868;8.646;2022-12-05T07:40:27;7.20;70.20
71208;DHT22;58938;49.868;8.646;2022-12-05T07:42:53;7.20;70.30
71208;DHT22;58938;49.868;8.646;2022-12-05T07:45:19;7.20;70.30
71208;DHT22;58938;49.868;8.646;2022-12-05T07:47:45;7.20;70.20
71208;DHT22;58938;49.868;8.646;2022-12-05T07:50:11;7.20;70.30
71208;DHT22;58938;49.868;8.646;2022-12-05T07:52:38;7.20;70.30
71208;DHT22;58938;49.868;8.646;2022-12-05T07:55:04;7.20;70.30
71208;DHT22;58938;49.868;8.646;2022-12-05T07:57:30;7.20;70.40
71208;DHT22;58938;49.868;8.646;2022-12-05T07:59:56;7.20;70.40
71208;DHT22;58938;49.868;8.646;2022-12-05T08:02:21;7.20;70.40
71208;DHT22;58938;49.868;8.646;2022-12-05T08:04:47;7.20;70.50
71208;DHT22;58938;49.868;8.646;2022-12-05T08:07:12;7.20;70.50
71208;DHT22;58938;49.868;8.646;2022-12-05T08:09:38;7.20;70.40
71208;DHT22;58938;49.868;8.646;2022-12-05T08:12:04;7.20;70.40
71208;DHT22;58938;49.868;8.646;2022-12-05T08:14:29;7.20;70.40
71208;DHT22;58938;49.868;8.646;2022-12-05T08:16:55;7.30;70.40
71208;DHT22;58938;49.868;8.646;2022-12-05T08:19:20;7.30;70.30
71208;DHT22;58938;49.868;8.646;2022-12-05T08:21:46;7.20;70.40
71208;DHT22;58938;49.868;8.646;2022-12-05T08:24:12;7.20;70.40
71208;DHT22;58938;49.868;8.646;2022-12-05T08:26:38;7.20;70.40
71208;DHT22;58938;49.868;8.646;2022-12-05T08:29:21;7.20;70.50
71208;DHT22;58938;49.868;8.646;2022-12-05T08:31:49;7.20;70.60
71208;DHT22;58938;49.868;8.646;2022-12-05T08:34:17;7.20;70.70
71208;DHT22;58938;49.868;8.646;2022-12-05T08:36:43;7.20;70.60
71208;DHT22;58938;49.868;8.646;2022-12-05T08:39:12;7.20;70.60
71208;DHT22;58938;49.868;8.646;2022-12-05T08:41:41;7.30;70.50
71208;DHT22;58938;49.868;8.646;2022-12-05T08:44:07;7.30;70.40
71208;DHT22;58938;49.868;8.646;2022-12-05T08:46:35;7.30;70.50
71208;DHT22;58938;49.868;8.646;2022-12-05T08:49:03;7.30;70.30
71208;DHT22;58938;49.868;8.646;2022-12-05T08:51:29;7.30;70.50
71208;DHT22;58938;49.868;8.646;2022-12-05T08:53:55;7.30;70.40
71208;DHT22;58938;49.868;8.646;2022-12-05T08:56:21;7.30;70.50
71208;DHT22;58938;49.868;8.646;2022-12-05T08:58:46;7.30;70.60
71208;DHT22;58938;49.868;8.646;2022-12-05T09:01:14;7.30;70.70
71208;DHT22;58938;49.868;8.646;2022-12-05T09:03:41;7.30;70.80
71208;DHT22;58938;49.868;8.646;2022-12-05T09:06:24;7.30;70.80
71208;DHT22;58938;49.868;8.646;2022-12-05T09:08:55;7.30;70.70
71208;DHT22;58938;49.868;8.646;2022-12-05T09:11:24;7.30;70.50
71208;DHT22;58938;49.868;8.646;2022-12-05T09:13:51;7.20;70.70
71208;DHT22;58938;49.868;8.646;2022-12-05T09:16:20;7.20;70.70
71208;DHT22;58938;49.868;8.646;2022-12-05T09:18:47;7.20;70.70
71208;DHT22;58938;49.868;8.646;2022-12-05T09:21:15;7.10;70.90
71208;DHT22;58938;49.868;8.646;2022-12-05T09:23:41;7.10;71.20
71208;DHT22;58938;49.868;8.646;2022-12-05T09:26:10;7.20;71.20
71208;DHT22;58938;49.868;8.646;2022-12-05T09:28:36;7.20;71.10
71208;DHT22;58938;49.868;8.646;2022-12-05T09:31:08;7.20;70.90
71208;DHT22;58938;49.868;8.646;2022-12-05T09:33:35;7.20;71.00
71208;DHT22;58938;49.868;8.646;2022-12-05T09:36:03;7.30;71.00
71208;DHT22;58938;49.868;8.646;2022-12-05T09:38:29;7.30;70.90
71208;DHT22;58938;49.868;8.646;2022-12-05T09:44:21;7.30;71.10
71208;DHT22;58938;49.868;8.646;2022-12-05T09:46:56;7.30;71.30
71208;DHT22;58938;49.868;8.646;2022-12-05T09:49:24;7.30;71.10
71208;DHT22;58938;49.868;8.646;2022-12-05T09:51:52;7.30;71.20
71208;DHT22;58938;49.868;8.646;2022-12-05T09:54:19;7.30;71.20
71208;DHT22;58938;49.868;8.646;2022-12-05T09:56:48;7.30;71.20
71208;DHT22;58938;49.868;8.646;2022-12-05T09:59:15;7.40;71.20
71208;DHT22;58938;49.868;8.646;2022-12-05T10:02:03;7.40;71.20
71208;DHT22;58938;49.868;8.646;2022-12-05T10:09:52;7.20;71.40
71208;DHT22;58938;49.868;8.646;2022-12-05T10:12:29;7.20;71.50
71208;DHT22;58938;49.868;8.646;2022-12-05T10:17:37;7.30;71.50
71208;DHT22;58938;49.868;8.646;2022-12-05T10:23:25;7.30;71.40
71208;DHT22;58938;49.868;8.646;2022-12-05T10:25:57;7.30;71.40
71208;DHT22;58938;49.868;8.646;2022-12-05T10:31:02;7.30;71.50
71208;DHT22;58938;49.868;8.646;2022-12-05T10:33:35;7.30;71.50
71208;DHT22;58938;49.868;8.646;2022-12-05T10:36:05;7.30;71.50
71208;DHT22;58938;49.868;8.646;2022-12-05T10:38:33;7.30;71.60
71208;DHT22;58938;49.868;8.646;2022-12-05T10:41:04;7.30;71.60
71208;DHT22;58938;49.868;8.646;2022-12-05T10:43:32;7.40;71.60
71208;DHT22;58938;49.868;8.646;2022-12-05T10:45:59;7.40;71.60
71208;DHT22;58938;49.868;8.646;2022-12-05T10:48:26;7.40;71.60
71208;DHT22;58938;49.868;8.646;2022-12-05T10:50:54;7.40;71.50
71208;DHT22;58938;49.868;8.646;2022-12-05T10:53:24;7.50;71.50
71208;DHT22;58938;49.868;8.646;2022-12-05T10:55:50;7.40;71.60
71208;DHT22;58938;49.868;8.646;2022-12-05T10:58:28;7.40;71.70
71208;DHT22;58938;49.868;8.646;2022-12-05T11:01:16;7.40;71.80
71208;DHT22;58938;49.868;8.646;2022-12-05T11:03:41;7.40;71.80
71208;DHT22;58938;49.868;8.646;2022-12-05T11:06:16;7.50;71.80
71208;DHT22;58938;49.868;8.646;2022-12-05T11:08:54;7.50;71.60
71208;DHT22;58938;49.868;8.646;2022-12-05T11:11:28;7.50;71.70
71208;DHT22;58938;49.868;8.646;2022-12-05T11:16:28;7.40;71.80
71208;DHT22;58938;49.868;8.646;2022-12-05T11:18:53;7.50;71.80
71208;DHT22;58938;49.868;8.646;2022-12-05T11:21:19;7.50;71.70
71208;DHT22;58938;49.868;8.646;2022-12-05T11:23:46;7.50;71.80
71208;DHT22;58938;49.868;8.646;2022-12-05T11:26:18;7.50;71.80
71208;DHT22;58938;49.868;8.646;2022-12-05T11:28:56;7.50;71.80
71208;DHT22;58938;49.868;8.646;2022-12-05T11:31:26;7.60;71.90
71208;DHT22;58938;49.868;8.646;2022-12-05T11:36:51;7.60;71.80
71208;DHT22;58938;49.868;8.646;2022-12-05T11:39:18;7.60;71.70
71208;DHT22;58938;49.868;8.646;2022-12-05T11:53:04;7.60;71.90
71208;DHT22;58938;49.868;8.646;2022-12-05T11:55:40;7.60;72.10
71208;DHT22;58938;49.868;8.646;2022-12-05T12:00:38;7.70;72.20
71208;DHT22;58938;49.868;8.646;2022-12-05T12:03:16;7.70;72.00
71208;DHT22;58938;49.868;8.646;2022-12-05T12:11:59;7.80;72.20
71208;DHT22;58938;49.868;8.646;2022-12-05T12:30:11;7.80;72.00
71208;DHT22;58938;49.868;8.646;2022-12-05T12:33:00;7.80;72.10
71208;DHT22;58938;49.868;8.646;2022-12-05T12:35:30;7.80;72.10
71208;DHT22;58938;49.868;8.646;2022-12-05T12:40:47;7.80;72.10
71208;DHT22;58938;49.868;8.646;2022-12-05T12:46:58;7.80;72.30
71208;DHT22;58938;49.868;8.646;2022-12-05T12:49:41;7.80;72.50
71208;DHT22;58938;49.868;8.646;2022-12-05T12:55:04;7.90;72.50
71208;DHT22;58938;49.868;8.646;2022-12-05T13:06:00;8.00;72.40
71208;DHT22;58938;49.868;8.646;2022-12-05T13:08:45;8.00;72.30
71208;DHT22;58938;49.868;8.646;2022-12-05T13:11:13;8.00;72.20
71208;DHT22;58938;49.868;8.646;2022-12-05T13:13:45;7.90;72.30
71208;DHT22;58938;49.868;8.646;2022-12-05T13:16:25;7.90;72.40
71208;DHT22;58938;49.868;8.646;2022-12-05T13:18:53;8.00;72.30
71208;DHT22;58938;49.868;8.646;2022-12-05T13:21:19;8.00;72.40
71208;DHT22;58938;49.868;8.646;2022-12-05T13:23:49;8.00;72.50
71208;DHT22;58938;49.868;8.646;2022-12-05T13:26:17;8.00;72.50
71208;DHT22;58938;49.868;8.646;2022-12-05T13:28:54;8.00;72.50
71208;DHT22;58938;49.868;8.646;2022-12-05T13:31:39;8.00;72.50
71208;DHT22;58938;49.868;8.646;2022-12-05T13:34:05;8.00;72.50
71208;DHT22;58938;49.868;8.646;2022-12-05T13:36:39;8.00;72.40
71208;DHT22;58938;49.868;8.646;2022-12-05T13:39:24;8.00;72.50
71208;DHT22;58938;49.868;8.646;2022-12-05T13:42:25;8.00;72.60
71208;DHT22;58938;49.868;8.646;2022-12-05T13:45:04;8.00;72.60
71208;DHT22;58938;49.868;8.646;2022-12-05T13:50:25;8.10;72.60
71208;DHT22;58938;49.868;8.646;2022-12-05T13:52:59;8.10;72.60
71208;DHT22;58938;49.868;8.646;2022-12-05T13:55:38;8.10;72.60
71208;DHT22;58938;49.868;8.646;2022-12-05T13:58:38;8.10;72.40
71208;DHT22;58938;49.868;8.646;2022-12-05T14:11:36;8.10;72.50
71208;DHT22;58938;49.868;8.646;2022-12-05T14:14:01;8.10;72.40
71208;DHT22;58938;49.868;8.646;2022-12-05T14:19:09;8.10;72.30
71208;DHT22;58938;49.868;8.646;2022-12-05T14:24:56;8.10;72.50
71208;DHT22;58938;49.868;8.646;2022-12-05T14:27:35;8.10;72.40
71208;DHT22;58938;49.868;8.646;2022-12-05T14:32:40;8.10;72.50
71208;DHT22;58938;49.868;8.646;2022-12-05T14:35:16;8.20;72.50
71208;DHT22;58938;49.868;8.646;2022-12-05T14:38:04;8.20;72.40
71208;DHT22;58938;49.868;8.646;2022-12-05T14:40:34;8.10;72.40
71208;DHT22;58938;49.868;8.646;2022-12-05T14:43:18;8.20;72.40
71208;DHT22;58938;49.868;8.646;2022-12-05T14:50:50;8.20;72.30
71208;DHT22;58938;49.868;8.646;2022-12-05T14:55:47;8.20;72.30
71208;DHT22;58938;49.868;8.646;2022-12-05T15:01:06;8.20;72.30
71208;DHT22;58938;49.868;8.646;2022-12-05T15:03:57;8.30;72.30
71208;DHT22;58938;49.868;8.646;2022-12-05T15:06:25;8.20;72.30
71208;DHT22;58938;49.868;8.646;2022-12-05T15:08:54;8.20;72.30
71208;DHT22;58938;49.868;8.646;2022-12-05T15:11:23;8.30;72.30
71208;DHT22;58938;49.868;8.646;2022-12-05T15:16:36;8.30;72.40
71208;DHT22;58938;49.868;8.646;2022-12-05T15:19:11;8.30;72.30
71208;DHT22;58938;49.868;8.646;2022-12-05T15:21:43;8.30;72.30
71208;DHT22;58938;49.868;8.646;2022-12-05T15:24:11;8.30;72.30
71208;DHT22;58938;49.868;8.646;2022-12-05T15:26:40;8.30;72.30
71208;DHT22;58938;49.868;8.646;2022-12-05T15:29:09;8.30;72.30
71208;DHT22;58938;49.868;8.646;2022-12-05T15:31:47;8.30;72.30
71208;DHT22;58938;49.868;8.646;2022-12-05T15:37:16;8.30;72.30
71208;DHT22;58938;49.868;8.646;2022-12-05T15:40:01;8.30;72.20
71208;DHT22;58938;49.868;8.646;2022-12-05T15:42:36;8.30;72.30
71208;DHT22;58938;49.868;8.646;2022-12-05T15:47:40;8.30;72.20
71208;DHT22;58938;49.868;8.646;2022-12-05T15:53:14;8.40;72.20
71208;DHT22;58938;49.868;8.646;2022-12-05T15:55:51;8.40;72.20
71208;DHT22;58938;49.868;8.646;2022-12-05T15:58:34;8.40;72.30
71208;DHT22;58938;49.868;8.646;2022-12-05T16:01:07;8.40;72.30
71208;DHT22;58938;49.868;8.646;2022-12-05T16:03:58;8.40;72.30
71208;DHT22;58938;49.868;8.646;2022-12-05T16:06:38;8.40;72.30
71208;DHT22;58938;49.868;8.646;2022-12-05T16:09:08;8.40;72.30
71208;DHT22;58938;49.868;8.646;2022-12-05T16:11:38;8.40;72.30
71208;DHT22;58938;49.868;8.646;2022-12-05T16:14:05;8.40;72.30
71208;DHT22;58938;49.868;8.646;2022-12-05T16:16:34;8.40;72.20
71208;DHT22;58938;49.868;8.646;2022-12-05T16:19:14;8.40;72.20
71208;DHT22;58938;49.868;8.646;2022-12-05T16:21:45;8.30;72.20
71208;DHT22;58938;49.868;8.646;2022-12-05T16:24:30;8.40;72.20
71208;DHT22;58938;49.868;8.646;2022-12-05T16:30:08;8.40;72.00
71208;DHT22;58938;49.868;8.646;2022-12-05T16:32:38;8.40;72.00
71208;DHT22;58938;49.868;8.646;2022-12-05T16:35:26;8.40;72.10
71208;DHT22;58938;49.868;8.646;2022-12-05T16:38:13;8.40;72.00
71208;DHT22;58938;49.868;8.646;2022-12-05T16:48:43;8.40;71.80
71208;DHT22;58938;49.868;8.646;2022-12-05T16:56:13;8.40;71.80
71208;DHT22;58938;49.868;8.646;2022-12-05T16:58:39;8.40;71.50
71208;DHT22;58938;49.868;8.646;2022-12-05T17:01:06;8.40;71.60
71208;DHT22;58938;49.868;8.646;2022-12-05T17:03:38;8.50;71.60
71208;DHT22;58938;49.868;8.646;2022-12-05T17:06:04;8.50;71.50
71208;DHT22;58938;49.868;8.646;2022-12-05T17:08:30;8.40;71.40
71208;DHT22;58938;49.868;8.646;2022-12-05T17:10:56;8.50;71.30
71208;DHT22;58938;49.868;8.646;2022-12-05T17:13:22;8.40;71.30
71208;DHT22;58938;49.868;8.646;2022-12-05T17:15:48;8.50;71.00
71208;DHT22;58938;49.868;8.646;2022-12-05T17:18:16;8.50;71.10
71208;DHT22;58938;49.868;8.646;2022-12-05T17:20:47;8.40;71.10
71208;DHT22;58938;49.868;8.646;2022-12-05T17:23:14;8.50;71.10
71208;DHT22;58938;49.868;8.646;2022-12-05T17:25:52;8.50;71.00
71208;DHT22;58938;49.868;8.646;2022-12-05T17:28:18;8.50;70.90
71208;DHT22;58938;49.868;8.646;2022-12-05T17:30:44;8.50;70.70
71208;DHT22;58938;49.868;8.646;2022-12-05T17:33:15;8.50;70.80
71208;DHT22;58938;49.868;8.646;2022-12-05T17:35:41;8.50;70.70
71208;DHT22;58938;49.868;8.646;2022-12-05T17:38:07;8.50;70.60
71208;DHT22;58938;49.868;8.646;2022-12-05T17:40:33;8.50;70.60
71208;DHT22;58938;49.868;8.646;2022-12-05T17:42:59;8.50;70.50
71208;DHT22;58938;49.868;8.646;2022-12-05T17:45:25;8.50;70.40
71208;DHT22;58938;49.868;8.646;2022-12-05T17:47:51;8.50;70.40
71208;DHT22;58938;49.868;8.646;2022-12-05T17:50:19;8.50;70.10
71208;DHT22;58938;49.868;8.646;2022-12-05T17:52:47;8.50;70.00
71208;DHT22;58938;49.868;8.646;2022-12-05T17:55:28;8.40;69.90
71208;DHT22;58938;49.868;8.646;2022-12-05T17:57:54;8.40;69.90
71208;DHT22;58938;49.868;8.646;2022-12-05T18:00:22;8.40;69.80
71208;DHT22;58938;49.868;8.646;2022-12-05T18:02:48;8.40;69.70
71208;DHT22;58938;49.868;8.646;2022-12-05T18:05:15;8.40;69.70
71208;DHT22;58938;49.868;8.646;2022-12-05T18:07:43;8.40;69.60
71208;DHT22;58938;49.868;8.646;2022-12-05T18:10:12;8.40;69.60
71208;DHT22;58938;49.868;8.646;2022-12-05T18:12:39;8.40;69.50
71208;DHT22;58938;49.868;8.646;2022-12-05T18:15:05;8.40;69.30
71208;DHT22;58938;49.868;8.646;2022-12-05T18:17:31;8.40;69.20
71208;DHT22;58938;49.868;8.646;2022-12-05T18:19:57;8.40;69.10
71208;DHT22;58938;49.868;8.646;2022-12-05T18:22:23;8.40;69.10
71208;DHT22;58938;49.868;8.646;2022-12-05T18:24:50;8.40;69.00
71208;DHT22;58938;49.868;8.646;2022-12-05T18:27:16;8.40;68.90
71208;DHT22;58938;49.868;8.646;2022-12-05T18:29:42;8.40;68.80
71208;DHT22;58938;49.868;8.646;2022-12-05T18:32:07;8.40;68.90
71208;DHT22;58938;49.868;8.646;2022-12-05T18:34:33;8.40;68.90
71208;DHT22;58938;49.868;8.646;2022-12-05T18:36:58;8.40;68.80
71208;DHT22;58938;49.868;8.646;2022-12-05T18:39:24;8.50;68.80
71208;DHT22;58938;49.868;8.646;2022-12-05T18:41:50;8.50;68.60
71208;DHT22;58938;49.868;8.646;2022-12-05T18:44:16;8.50;68.60
71208;DHT22;58938;49.868;8.646;2022-12-05T18:46:41;8.50;68.60
71208;DHT22;58938;49.868;8.646;2022-12-05T18:49:07;8.50;68.40